sensor_id;sensor_type;location;lat;lon;timestamp;P1;durP1;ratioP1;P2;durP2;ratioP2
14326;SDS011;7247;53.330;-1.180;2023-03-23T00:00:36;0.90;;;0.70;;
14326;SDS011;7247;53.330;-1.180;2023-03-23T00:03:03;2.47;;;0.83;;
14326;SDS011;7247;53.330;-1.180;2023-03-23T00:05:30;1.67;;;0.70;;
14326;SDS011;7247;53.330;-1.180;2023-03-23T00:07:56;2.97;;;1.10;;
14326;SDS011;7247;53.330;-1.180;2023-03-23T00:10:24;4.33;;;1.00;;
14326;SDS011;7247;53.330;-1.180;2023-03-23T00:12:52;2.57;;;1.10;;
14326;SDS011;7247;53.330;-1.180;2023-03-23T00:15:21;3.10;;;1.13;;
14326;SDS011;7247;53.330;-1.180;2023-03-23T00:17:49;4.10;;;1.37;;
14326;SDS011;7247;53.330;-1.180;2023-03-23T00:20:16;7.30;;;1.10;;
14326;SDS011;7247;53.330;-1.180;2023-03-23T00:22:42;1.87;;;1.00;;
14326;SDS011;7247;53.330;-1.180;2023-03-23T00:25:09;6.30;;;1.70;;
14326;SDS011;7247;53.330;-1.180;2023-03-23T00:27:35;5.57;;;1.40;;
14326;SDS011;7247;53.330;-1.180;2023-03-23T00:30:03;4.57;;;1.47;;
14326;SDS011;7247;53.330;-1.180;2023-03-23T00:32:30;3.20;;;1.27;;
14326;SDS011;7247;53.330;-1.180;2023-03-23T00:34:57;4.50;;;1.37;;
14326;SDS011;7247;53.330;-1.180;2023-03-23T00:37:24;5.03;;;1.43;;
14326;SDS011;7247;53.330;-1.180;2023-03-23T00:39:51;4.37;;;1.20;;
14326;SDS011;7247;53.330;-1.180;2023-03-23T00:42:22;4.67;;;1.30;;
14326;SDS011;7247;53.330;-1.180;2023-03-23T00:44:48;5.30;;;1.93;;
14326;SDS011;7247;53.330;-1.180;2023-03-23T00:47:16;2.93;;;1.20;;
14326;SDS011;7247;53.330;-1.180;2023-03-23T00:49:42;5.63;;;1.47;;
14326;SDS011;7247;53.330;-1.180;2023-03-23T00:52:09;4.53;;;1.23;;
14326;SDS011;7247;53.330;-1.180;2023-03-23T00:54:37;4.40;;;1.10;;
14326;SDS011;7247;53.330;-1.180;2023-03-23T00:57:03;3.97;;;1.27;;
14326;SDS011;7247;53.330;-1.180;2023-03-23T00:59:30;5.93;;;1.30;;
14326;SDS011;7247;53.330;-1.180;2023-03-23T01:01:57;4.77;;;1.50;;
14326;SDS011;7247;53.330;-1.180;2023-03-23T01:04:25;4.87;;;1.20;;
14326;SDS011;7247;53.330;-1.180;2023-03-23T01:06:53;3.03;;;1.50;;
14326;SDS011;7247;53.330;-1.180;2023-03-23T01:09:21;4.47;;;1.53;;
14326;SDS011;7247;53.330;-1.180;2023-03-23T01:11:49;4.93;;;1.43;;
14326;SDS011;7247;53.330;-1.180;2023-03-23T01:14:16;5.50;;;1.60;;
14326;SDS011;7247;53.330;-1.180;2023-03-23T01:16:42;6.13;;;1.30;;
14326;SDS011;7247;53.330;-1.180;2023-03-23T01:19:09;7.20;;;1.43;;
14326;SDS011;7247;53.330;-1.180;2023-03-23T01:21:37;6.80;;;1.43;;
14326;SDS011;7247;53.330;-1.180;2023-03-23T01:24:03;5.27;;;1.60;;
14326;SDS011;7247;53.330;-1.180;2023-03-23T01:26:30;5.10;;;1.50;;
14326;SDS011;7247;53.330;-1.180;2023-03-23T01:28:56;5.67;;;1.43;;
14326;SDS011;7247;53.330;-1.180;2023-03-23T01:31:23;4.57;;;1.40;;
14326;SDS011;7247;53.330;-1.180;2023-03-23T01:33:50;5.70;;;1.40;;
14326;SDS011;7247;53.330;-1.180;2023-03-23T01:36:18;6.60;;;1.40;;
14326;SDS011;7247;53.330;-1.180;2023-03-23T01:38:46;5.37;;;1.57;;
14326;SDS011;7247;53.330;-1.180;2023-03-23T01:41:14;4.87;;;1.40;;
14326;SDS011;7247;53.330;-1.180;2023-03-23T01:43:53;5.30;;;1.87;;
14326;SDS011;7247;53.330;-1.180;2023-03-23T01:46:19;5.87;;;1.33;;
14326;SDS011;7247;53.330;-1.180;2023-03-23T01:48:47;5.37;;;1.53;;
14326;SDS011;7247;53.330;-1.180;2023-03-23T01:51:15;5.77;;;1.40;;
14326;SDS011;7247;53.330;-1.180;2023-03-23T01:53:43;5.37;;;1.50;;
14326;SDS011;7247;53.330;-1.180;2023-03-23T01:56:11;5.77;;;1.40;;
14326;SDS011;7247;53.330;-1.180;2023-03-23T01:58:38;8.10;;;1.87;;
14326;SDS011;7247;53.330;-1.180;2023-03-23T02:01:06;5.50;;;1.47;;
14326;SDS011;7247;53.330;-1.180;2023-03-23T02:03:34;7.93;;;1.80;;
14326;SDS011;7247;53.330;-1.180;2023-03-23T02:06:01;5.30;;;1.83;;
14326;SDS011;7247;53.330;-1.180;2023-03-23T02:08:28;9.60;;;1.53;;
14326;SDS011;7247;53.330;-1.180;2023-03-23T02:10:55;5.07;;;1.60;;
14326;SDS011;7247;53.330;-1.180;2023-03-23T02:13:23;8.50;;;1.83;;
14326;SDS011;7247;53.330;-1.180;2023-03-23T02:15:54;6.17;;;1.80;;
14326;SDS011;7247;53.330;-1.180;2023-03-23T02:18:28;10.73;;;1.80;;
14326;SDS011;7247;53.330;-1.180;2023-03-23T02:21:19;6.53;;;1.70;;
14326;SDS011;7247;53.330;-1.180;2023-03-23T02:23:58;7.10;;;1.77;;
14326;SDS011;7247;53.330;-1.180;2023-03-23T02:26:33;6.53;;;1.50;;
14326;SDS011;7247;53.330;-1.180;2023-03-23T02:31:59;16.67;;;2.50;;
14326;SDS011;7247;53.330;-1.180;2023-03-23T02:34:32;9.73;;;1.87;;
14326;SDS011;7247;53.330;-1.180;2023-03-23T02:37:03;6.67;;;1.60;;
14326;SDS011;7247;53.330;-1.180;2023-03-23T02:39:32;7.70;;;2.10;;
14326;SDS011;7247;53.330;-1.180;2023-03-23T02:42:01;9.03;;;1.87;;
14326;SDS011;7247;53.330;-1.180;2023-03-23T02:44:28;8.93;;;1.60;;
14326;SDS011;7247;53.330;-1.180;2023-03-23T02:46:56;8.63;;;2.10;;
14326;SDS011;7247;53.330;-1.180;2023-03-23T02:49:22;13.17;;;2.00;;
14326;SDS011;7247;53.330;-1.180;2023-03-23T02:51:51;6.60;;;1.60;;
14326;SDS011;7247;53.330;-1.180;2023-03-23T02:54:20;10.03;;;1.60;;
14326;SDS011;7247;53.330;-1.180;2023-03-23T02:56:50;11.60;;;2.27;;
14326;SDS011;7247;53.330;-1.180;2023-03-23T02:59:20;7.20;;;1.70;;
14326;SDS011;7247;53.330;-1.180;2023-03-23T03:01:51;6.87;;;2.07;;
14326;SDS011;7247;53.330;-1.180;2023-03-23T03:04:19;7.20;;;2.10;;
14326;SDS011;7247;53.330;-1.180;2023-03-23T03:06:48;8.40;;;2.30;;
14326;SDS011;7247;53.330;-1.180;2023-03-23T03:09:22;12.40;;;2.57;;
14326;SDS011;7247;53.330;-1.180;2023-03-23T03:11:54;12.30;;;2.07;;
14326;SDS011;7247;53.330;-1.180;2023-03-23T03:14:22;9.10;;;1.90;;
14326;SDS011;7247;53.330;-1.180;2023-03-23T03:16:52;8.43;;;1.90;;
14326;SDS011;7247;53.330;-1.180;2023-03-23T03:19:22;14.37;;;2.70;;
14326;SDS011;7247;53.330;-1.180;2023-03-23T03:21:50;8.80;;;2.20;;
14326;SDS011;7247;53.330;-1.180;2023-03-23T03:24:18;12.03;;;2.30;;
14326;SDS011;7247;53.330;-1.180;2023-03-23T03:26:48;8.80;;;2.10;;
14326;SDS011;7247;53.330;-1.180;2023-03-23T03:29:17;11.63;;;2.17;;
14326;SDS011;7247;53.330;-1.180;2023-03-23T03:31:44;10.67;;;2.00;;
14326;SDS011;7247;53.330;-1.180;2023-03-23T03:34:12;13.63;;;2.53;;
14326;SDS011;7247;53.330;-1.180;2023-03-23T03:36:43;11.70;;;2.10;;
14326;SDS011;7247;53.330;-1.180;2023-03-23T03:39:10;4.73;;;1.60;;
14326;SDS011;7247;53.330;-1.180;2023-03-23T03:41:37;8.17;;;2.00;;
14326;SDS011;7247;53.330;-1.180;2023-03-23T03:44:05;7.97;;;1.73;;
14326;SDS011;7247;53.330;-1.180;2023-03-23T03:46:32;10.23;;;1.70;;
14326;SDS011;7247;53.330;-1.180;2023-03-23T03:48:59;9.83;;;2.50;;
14326;SDS011;7247;53.330;-1.180;2023-03-23T03:51:26;7.93;;;1.80;;
14326;SDS011;7247;53.330;-1.180;2023-03-23T03:53:53;10.30;;;2.10;;
14326;SDS011;7247;53.330;-1.180;2023-03-23T03:56:19;10.97;;;2.73;;
14326;SDS011;7247;53.330;-1.180;2023-03-23T03:58:47;10.27;;;2.27;;
14326;SDS011;7247;53.330;-1.180;2023-03-23T04:01:15;11.73;;;2.00;;
14326;SDS011;7247;53.330;-1.180;2023-03-23T04:03:42;7.83;;;2.00;;
14326;SDS011;7247;53.330;-1.180;2023-03-23T04:06:09;8.43;;;2.03;;
14326;SDS011;7247;53.330;-1.180;2023-03-23T04:08:37;8.83;;;1.97;;
14326;SDS011;7247;53.330;-1.180;2023-03-23T04:11:04;10.10;;;2.33;;
14326;SDS011;7247;53.330;-1.180;2023-03-23T04:13:31;9.73;;;2.40;;
14326;SDS011;7247;53.330;-1.180;2023-03-23T04:15:57;10.00;;;2.60;;
14326;SDS011;7247;53.330;-1.180;2023-03-23T04:18:25;11.83;;;2.17;;
14326;SDS011;7247;53.330;-1.180;2023-03-23T04:20:52;12.20;;;2.33;;
14326;SDS011;7247;53.330;-1.180;2023-03-23T04:23:19;12.40;;;2.80;;
14326;SDS011;7247;53.330;-1.180;2023-03-23T04:25:47;9.43;;;2.53;;
14326;SDS011;7247;53.330;-1.180;2023-03-23T04:28:14;16.37;;;2.60;;
14326;SDS011;7247;53.330;-1.180;2023-03-23T04:30:41;14.10;;;2.70;;
14326;SDS011;7247;53.330;-1.180;2023-03-23T04:33:08;14.87;;;2.83;;
14326;SDS011;7247;53.330;-1.180;2023-03-23T04:35:40;12.47;;;2.50;;
14326;SDS011;7247;53.330;-1.180;2023-03-23T04:38:07;14.00;;;2.77;;
14326;SDS011;7247;53.330;-1.180;2023-03-23T04:40:35;14.33;;;2.70;;
14326;SDS011;7247;53.330;-1.180;2023-03-23T04:43:01;12.10;;;2.40;;
14326;SDS011;7247;53.330;-1.180;2023-03-23T04:45:30;14.03;;;2.40;;
14326;SDS011;7247;53.330;-1.180;2023-03-23T04:47:57;12.70;;;2.70;;
14326;SDS011;7247;53.330;-1.180;2023-03-23T04:50:24;12.30;;;2.80;;
14326;SDS011;7247;53.330;-1.180;2023-03-23T04:52:53;12.83;;;3.10;;
14326;SDS011;7247;53.330;-1.180;2023-03-23T04:55:22;14.33;;;2.57;;
14326;SDS011;7247;53.330;-1.180;2023-03-23T04:57:49;15.93;;;3.17;;
14326;SDS011;7247;53.330;-1.180;2023-03-23T05:00:16;13.83;;;2.73;;
14326;SDS011;7247;53.330;-1.180;2023-03-23T05:02:43;16.70;;;3.43;;
14326;SDS011;7247;53.330;-1.180;2023-03-23T05:05:10;14.50;;;3.20;;
14326;SDS011;7247;53.330;-1.180;2023-03-23T05:07:38;17.27;;;4.10;;
14326;SDS011;7247;53.330;-1.180;2023-03-23T05:10:07;14.77;;;2.80;;
14326;SDS011;7247;53.330;-1.180;2023-03-23T05:12:34;13.90;;;3.33;;
14326;SDS011;7247;53.330;-1.180;2023-03-23T05:15:00;21.70;;;3.27;;
14326;SDS011;7247;53.330;-1.180;2023-03-23T05:17:27;14.07;;;2.97;;
14326;SDS011;7247;53.330;-1.180;2023-03-23T05:19:55;18.63;;;3.00;;
14326;SDS011;7247;53.330;-1.180;2023-03-23T05:22:22;16.27;;;3.00;;
14326;SDS011;7247;53.330;-1.180;2023-03-23T05:24:48;12.63;;;2.63;;
14326;SDS011;7247;53.330;-1.180;2023-03-23T05:27:18;13.47;;;2.83;;
14326;SDS011;7247;53.330;-1.180;2023-03-23T05:29:44;16.57;;;3.20;;
14326;SDS011;7247;53.330;-1.180;2023-03-23T05:32:13;15.07;;;2.70;;
14326;SDS011;7247;53.330;-1.180;2023-03-23T05:34:40;12.20;;;3.43;;
14326;SDS011;7247;53.330;-1.180;2023-03-23T05:37:08;13.50;;;2.77;;
14326;SDS011;7247;53.330;-1.180;2023-03-23T05:39:35;13.60;;;3.60;;
14326;SDS011;7247;53.330;-1.180;2023-03-23T05:42:02;16.87;;;3.47;;
14326;SDS011;7247;53.330;-1.180;2023-03-23T05:44:30;13.83;;;3.50;;
14326;SDS011;7247;53.330;-1.180;2023-03-23T05:46:57;17.33;;;3.23;;
14326;SDS011;7247;53.330;-1.180;2023-03-23T05:49:23;18.33;;;3.50;;
14326;SDS011;7247;53.330;-1.180;2023-03-23T05:51:51;17.43;;;3.30;;
14326;SDS011;7247;53.330;-1.180;2023-03-23T05:54:18;16.70;;;3.77;;
14326;SDS011;7247;53.330;-1.180;2023-03-23T05:56:44;17.90;;;2.90;;
14326;SDS011;7247;53.330;-1.180;2023-03-23T05:59:11;15.53;;;3.50;;
14326;SDS011;7247;53.330;-1.180;2023-03-23T06:01:39;16.37;;;3.33;;
14326;SDS011;7247;53.330;-1.180;2023-03-23T06:04:05;16.73;;;2.93;;
14326;SDS011;7247;53.330;-1.180;2023-03-23T06:06:32;14.10;;;3.20;;
14326;SDS011;7247;53.330;-1.180;2023-03-23T06:08:58;16.80;;;3.40;;
14326;SDS011;7247;53.330;-1.180;2023-03-23T06:11:25;13.90;;;2.73;;
14326;SDS011;7247;53.330;-1.180;2023-03-23T06:13:51;15.70;;;3.20;;
14326;SDS011;7247;53.330;-1.180;2023-03-23T06:16:18;18.17;;;3.30;;
14326;SDS011;7247;53.330;-1.180;2023-03-23T06:18:46;17.40;;;3.37;;
14326;SDS011;7247;53.330;-1.180;2023-03-23T06:21:13;11.63;;;2.70;;
14326;SDS011;7247;53.330;-1.180;2023-03-23T06:23:40;16.90;;;3.27;;
14326;SDS011;7247;53.330;-1.180;2023-03-23T06:26:07;21.90;;;3.87;;
14326;SDS011;7247;53.330;-1.180;2023-03-23T06:28:35;13.07;;;3.80;;
14326;SDS011;7247;53.330;-1.180;2023-03-23T06:31:01;18.50;;;3.10;;
14326;SDS011;7247;53.330;-1.180;2023-03-23T06:33:29;18.70;;;3.67;;
14326;SDS011;7247;53.330;-1.180;2023-03-23T06:35:57;17.90;;;3.73;;
14326;SDS011;7247;53.330;-1.180;2023-03-23T06:38:24;15.87;;;3.77;;
14326;SDS011;7247;53.330;-1.180;2023-03-23T06:40:51;21.10;;;4.00;;
14326;SDS011;7247;53.330;-1.180;2023-03-23T06:43:18;15.90;;;3.70;;
14326;SDS011;7247;53.330;-1.180;2023-03-23T06:45:44;14.93;;;3.73;;
14326;SDS011;7247;53.330;-1.180;2023-03-23T06:48:11;18.13;;;4.33;;
14326;SDS011;7247;53.330;-1.180;2023-03-23T06:50:37;22.97;;;3.97;;
14326;SDS011;7247;53.330;-1.180;2023-03-23T06:53:05;20.77;;;4.63;;
14326;SDS011;7247;53.330;-1.180;2023-03-23T06:55:31;21.60;;;4.17;;
14326;SDS011;7247;53.330;-1.180;2023-03-23T06:57:58;13.80;;;2.93;;
14326;SDS011;7247;53.330;-1.180;2023-03-23T07:00:26;19.83;;;3.80;;
14326;SDS011;7247;53.330;-1.180;2023-03-23T07:02:54;21.07;;;4.13;;
14326;SDS011;7247;53.330;-1.180;2023-03-23T07:05:21;21.30;;;4.33;;
14326;SDS011;7247;53.330;-1.180;2023-03-23T07:07:47;18.67;;;4.23;;
14326;SDS011;7247;53.330;-1.180;2023-03-23T07:10:15;13.97;;;3.97;;
14326;SDS011;7247;53.330;-1.180;2023-03-23T07:12:41;23.93;;;4.83;;
14326;SDS011;7247;53.330;-1.180;2023-03-23T07:15:08;21.50;;;4.13;;
14326;SDS011;7247;53.330;-1.180;2023-03-23T07:17:35;13.80;;;3.30;;
14326;SDS011;7247;53.330;-1.180;2023-03-23T07:20:02;21.40;;;3.97;;
14326;SDS011;7247;53.330;-1.180;2023-03-23T07:22:29;17.13;;;3.93;;
14326;SDS011;7247;53.330;-1.180;2023-03-23T07:24:56;20.23;;;4.07;;
14326;SDS011;7247;53.330;-1.180;2023-03-23T07:27:24;18.70;;;4.13;;
14326;SDS011;7247;53.330;-1.180;2023-03-23T07:29:50;13.60;;;3.40;;
14326;SDS011;7247;53.330;-1.180;2023-03-23T07:32:17;20.47;;;3.60;;
14326;SDS011;7247;53.330;-1.180;2023-03-23T07:34:43;20.73;;;4.13;;
14326;SDS011;7247;53.330;-1.180;2023-03-23T07:37:10;22.80;;;4.77;;
14326;SDS011;7247;53.330;-1.180;2023-03-23T07:39:36;20.50;;;4.43;;
14326;SDS011;7247;53.330;-1.180;2023-03-23T07:42:03;24.00;;;4.40;;
14326;SDS011;7247;53.330;-1.180;2023-03-23T07:44:30;20.23;;;4.13;;
14326;SDS011;7247;53.330;-1.180;2023-03-23T07:46:57;20.43;;;3.83;;
14326;SDS011;7247;53.330;-1.180;2023-03-23T07:49:23;16.53;;;3.97;;
14326;SDS011;7247;53.330;-1.180;2023-03-23T07:51:51;18.73;;;4.73;;
14326;SDS011;7247;53.330;-1.180;2023-03-23T07:54:18;20.27;;;3.90;;
14326;SDS011;7247;53.330;-1.180;2023-03-23T07:56:44;13.07;;;3.87;;
14326;SDS011;7247;53.330;-1.180;2023-03-23T07:59:11;16.27;;;3.50;;
14326;SDS011;7247;53.330;-1.180;2023-03-23T08:01:39;18.30;;;3.83;;
14326;SDS011;7247;53.330;-1.180;2023-03-23T08:04:06;19.40;;;4.17;;
14326;SDS011;7247;53.330;-1.180;2023-03-23T08:06:33;15.87;;;3.60;;
14326;SDS011;7247;53.330;-1.180;2023-03-23T08:09:00;20.57;;;4.30;;
14326;SDS011;7247;53.330;-1.180;2023-03-23T08:11:32;18.37;;;3.63;;
14326;SDS011;7247;53.330;-1.180;2023-03-23T08:13:59;18.20;;;4.20;;
14326;SDS011;7247;53.330;-1.180;2023-03-23T08:16:25;14.17;;;3.83;;
14326;SDS011;7247;53.330;-1.180;2023-03-23T08:18:54;18.30;;;3.60;;
14326;SDS011;7247;53.330;-1.180;2023-03-23T08:21:21;16.93;;;3.63;;
14326;SDS011;7247;53.330;-1.180;2023-03-23T08:23:48;18.00;;;3.60;;
14326;SDS011;7247;53.330;-1.180;2023-03-23T08:26:15;21.60;;;3.73;;
14326;SDS011;7247;53.330;-1.180;2023-03-23T08:28:42;14.70;;;2.97;;
14326;SDS011;7247;53.330;-1.180;2023-03-23T08:31:09;12.77;;;3.33;;
14326;SDS011;7247;53.330;-1.180;2023-03-23T08:33:36;14.83;;;3.23;;
14326;SDS011;7247;53.330;-1.180;2023-03-23T08:36:04;14.17;;;3.30;;
14326;SDS011;7247;53.330;-1.180;2023-03-23T08:38:31;14.20;;;3.53;;
14326;SDS011;7247;53.330;-1.180;2023-03-23T08:40:58;14.67;;;3.63;;
14326;SDS011;7247;53.330;-1.180;2023-03-23T08:43:25;13.03;;;3.20;;
14326;SDS011;7247;53.330;-1.180;2023-03-23T08:45:52;14.00;;;2.87;;
14326;SDS011;7247;53.330;-1.180;2023-03-23T08:48:18;13.63;;;3.17;;
14326;SDS011;7247;53.330;-1.180;2023-03-23T08:50:45;13.57;;;3.13;;
14326;SDS011;7247;53.330;-1.180;2023-03-23T08:53:12;19.97;;;3.67;;
14326;SDS011;7247;53.330;-1.180;2023-03-23T08:55:39;12.90;;;3.27;;
14326;SDS011;7247;53.330;-1.180;2023-03-23T08:58:05;13.07;;;3.53;;
14326;SDS011;7247;53.330;-1.180;2023-03-23T09:00:32;14.03;;;3.27;;
14326;SDS011;7247;53.330;-1.180;2023-03-23T09:02:59;13.20;;;3.37;;
14326;SDS011;7247;53.330;-1.180;2023-03-23T09:05:26;12.50;;;2.97;;
14326;SDS011;7247;53.330;-1.180;2023-03-23T09:07:53;11.97;;;2.70;;
14326;SDS011;7247;53.330;-1.180;2023-03-23T09:10:21;9.77;;;2.70;;
14326;SDS011;7247;53.330;-1.180;2023-03-23T09:12:49;14.33;;;3.70;;
14326;SDS011;7247;53.330;-1.180;2023-03-23T09:15:16;14.23;;;3.90;;
14326;SDS011;7247;53.330;-1.180;2023-03-23T09:17:45;13.80;;;3.53;;
14326;SDS011;7247;53.330;-1.180;2023-03-23T09:20:12;19.23;;;3.40;;
14326;SDS011;7247;53.330;-1.180;2023-03-23T09:22:39;14.20;;;3.37;;
14326;SDS011;7247;53.330;-1.180;2023-03-23T09:25:06;15.13;;;3.10;;
14326;SDS011;7247;53.330;-1.180;2023-03-23T09:27:35;17.47;;;3.70;;
14326;SDS011;7247;53.330;-1.180;2023-03-23T09:30:04;16.63;;;3.93;;
14326;SDS011;7247;53.330;-1.180;2023-03-23T09:32:32;11.37;;;3.10;;
14326;SDS011;7247;53.330;-1.180;2023-03-23T09:34:58;14.20;;;3.80;;
14326;SDS011;7247;53.330;-1.180;2023-03-23T09:37:25;12.43;;;2.80;;
14326;SDS011;7247;53.330;-1.180;2023-03-23T09:39:52;17.73;;;3.63;;
14326;SDS011;7247;53.330;-1.180;2023-03-23T09:42:27;17.90;;;4.07;;
14326;SDS011;7247;53.330;-1.180;2023-03-23T09:45:00;11.77;;;2.63;;
14326;SDS011;7247;53.330;-1.180;2023-03-23T09:47:30;14.67;;;3.83;;
14326;SDS011;7247;53.330;-1.180;2023-03-23T09:49:59;13.80;;;3.73;;
14326;SDS011;7247;53.330;-1.180;2023-03-23T09:52:30;13.90;;;3.83;;
14326;SDS011;7247;53.330;-1.180;2023-03-23T09:54:57;16.47;;;3.60;;
14326;SDS011;7247;53.330;-1.180;2023-03-23T09:57:26;11.80;;;3.63;;
14326;SDS011;7247;53.330;-1.180;2023-03-23T09:59:56;15.57;;;3.50;;
14326;SDS011;7247;53.330;-1.180;2023-03-23T10:02:26;14.57;;;3.40;;
14326;SDS011;7247;53.330;-1.180;2023-03-23T10:04:54;16.87;;;3.40;;
14326;SDS011;7247;53.330;-1.180;2023-03-23T10:07:22;11.80;;;3.30;;
14326;SDS011;7247;53.330;-1.180;2023-03-23T10:09:51;15.27;;;3.60;;
14326;SDS011;7247;53.330;-1.180;2023-03-23T10:12:24;16.47;;;3.80;;
14326;SDS011;7247;53.330;-1.180;2023-03-23T10:14:58;11.20;;;3.37;;
14326;SDS011;7247;53.330;-1.180;2023-03-23T10:17:29;9.80;;;3.20;;
14326;SDS011;7247;53.330;-1.180;2023-03-23T10:20:02;14.43;;;3.20;;
14326;SDS011;7247;53.330;-1.180;2023-03-23T10:22:34;12.80;;;3.47;;
14326;SDS011;7247;53.330;-1.180;2023-03-23T10:25:03;11.83;;;3.20;;
14326;SDS011;7247;53.330;-1.180;2023-03-23T10:27:35;16.13;;;3.20;;
14326;SDS011;7247;53.330;-1.180;2023-03-23T10:30:10;11.97;;;3.40;;
14326;SDS011;7247;53.330;-1.180;2023-03-23T10:32:42;12.47;;;2.90;;
14326;SDS011;7247;53.330;-1.180;2023-03-23T10:35:11;13.37;;;3.13;;
14326;SDS011;7247;53.330;-1.180;2023-03-23T10:37:39;12.27;;;3.23;;
14326;SDS011;7247;53.330;-1.180;2023-03-23T10:40:12;10.03;;;2.87;;
14326;SDS011;7247;53.330;-1.180;2023-03-23T10:42:40;11.60;;;2.97;;
14326;SDS011;7247;53.330;-1.180;2023-03-23T10:45:11;9.57;;;2.60;;
14326;SDS011;7247;53.330;-1.180;2023-03-23T10:47:39;10.67;;;3.10;;
14326;SDS011;7247;53.330;-1.180;2023-03-23T10:50:11;11.23;;;3.53;;
14326;SDS011;7247;53.330;-1.180;2023-03-23T10:52:39;9.33;;;2.93;;
14326;SDS011;7247;53.330;-1.180;2023-03-23T10:55:07;12.40;;;3.30;;
14326;SDS011;7247;53.330;-1.180;2023-03-23T10:57:34;10.90;;;2.90;;
14326;SDS011;7247;53.330;-1.180;2023-03-23T11:00:03;10.03;;;2.83;;
14326;SDS011;7247;53.330;-1.180;2023-03-23T11:02:36;9.87;;;3.10;;
14326;SDS011;7247;53.330;-1.180;2023-03-23T11:05:04;10.87;;;3.30;;
14326;SDS011;7247;53.330;-1.180;2023-03-23T11:07:34;11.23;;;3.10;;
14326;SDS011;7247;53.330;-1.180;2023-03-23T11:10:14;9.30;;;2.93;;
14326;SDS011;7247;53.330;-1.180;2023-03-23T11:12:43;13.30;;;3.77;;
14326;SDS011;7247;53.330;-1.180;2023-03-23T11:15:15;14.03;;;3.70;;
14326;SDS011;7247;53.330;-1.180;2023-03-23T11:17:54;11.30;;;3.33;;
14326;SDS011;7247;53.330;-1.180;2023-03-23T11:20:20;10.03;;;2.67;;
14326;SDS011;7247;53.330;-1.180;2023-03-23T11:22:48;11.57;;;3.10;;
14326;SDS011;7247;53.330;-1.180;2023-03-23T11:25:15;9.90;;;3.30;;
14326;SDS011;7247;53.330;-1.180;2023-03-23T11:27:41;11.37;;;3.50;;
14326;SDS011;7247;53.330;-1.180;2023-03-23T11:30:09;9.40;;;2.90;;
14326;SDS011;7247;53.330;-1.180;2023-03-23T11:32:35;12.17;;;3.63;;
14326;SDS011;7247;53.330;-1.180;2023-03-23T11:35:03;8.27;;;2.47;;
14326;SDS011;7247;53.330;-1.180;2023-03-23T11:37:32;7.77;;;2.93;;
14326;SDS011;7247;53.330;-1.180;2023-03-23T11:40:01;6.13;;;2.47;;
14326;SDS011;7247;53.330;-1.180;2023-03-23T11:42:34;9.50;;;2.60;;
14326;SDS011;7247;53.330;-1.180;2023-03-23T11:45:12;9.37;;;3.00;;
14326;SDS011;7247;53.330;-1.180;2023-03-23T11:47:39;8.17;;;3.03;;
14326;SDS011;7247;53.330;-1.180;2023-03-23T11:50:08;11.33;;;3.07;;
14326;SDS011;7247;53.330;-1.180;2023-03-23T11:52:39;11.73;;;3.50;;
14326;SDS011;7247;53.330;-1.180;2023-03-23T11:55:09;10.57;;;3.17;;
14326;SDS011;7247;53.330;-1.180;2023-03-23T11:57:37;10.00;;;3.03;;
14326;SDS011;7247;53.330;-1.180;2023-03-23T12:00:10;12.83;;;3.00;;
14326;SDS011;7247;53.330;-1.180;2023-03-23T12:02:40;12.93;;;3.47;;
14326;SDS011;7247;53.330;-1.180;2023-03-23T12:08:01;11.17;;;3.50;;
14326;SDS011;7247;53.330;-1.180;2023-03-23T12:10:34;14.37;;;4.13;;
14326;SDS011;7247;53.330;-1.180;2023-03-23T12:13:15;14.50;;;4.07;;
14326;SDS011;7247;53.330;-1.180;2023-03-23T12:15:45;12.07;;;3.70;;
14326;SDS011;7247;53.330;-1.180;2023-03-23T12:18:17;15.10;;;3.97;;
14326;SDS011;7247;53.330;-1.180;2023-03-23T12:20:49;13.67;;;4.00;;
14326;SDS011;7247;53.330;-1.180;2023-03-23T12:23:20;12.17;;;3.20;;
14326;SDS011;7247;53.330;-1.180;2023-03-23T12:28:43;15.13;;;4.07;;
14326;SDS011;7247;53.330;-1.180;2023-03-23T12:31:15;11.23;;;3.47;;
14326;SDS011;7247;53.330;-1.180;2023-03-23T12:33:49;11.97;;;3.40;;
14326;SDS011;7247;53.330;-1.180;2023-03-23T12:36:22;10.93;;;2.83;;
14326;SDS011;7247;53.330;-1.180;2023-03-23T12:41:39;12.83;;;3.30;;
14326;SDS011;7247;53.330;-1.180;2023-03-23T12:44:09;10.37;;;2.80;;
14326;SDS011;7247;53.330;-1.180;2023-03-23T12:46:41;11.63;;;2.87;;
14326;SDS011;7247;53.330;-1.180;2023-03-23T12:49:21;12.57;;;2.70;;
14326;SDS011;7247;53.330;-1.180;2023-03-23T12:51:50;10.33;;;2.53;;
14326;SDS011;7247;53.330;-1.180;2023-03-23T12:54:19;9.43;;;2.73;;
14326;SDS011;7247;53.330;-1.180;2023-03-23T12:56:49;8.63;;;2.83;;
14326;SDS011;7247;53.330;-1.180;2023-03-23T12:59:19;10.27;;;2.90;;
14326;SDS011;7247;53.330;-1.180;2023-03-23T13:01:48;7.10;;;2.70;;
14326;SDS011;7247;53.330;-1.180;2023-03-23T13:04:17;9.53;;;2.90;;
14326;SDS011;7247;53.330;-1.180;2023-03-23T13:06:46;11.40;;;2.90;;
14326;SDS011;7247;53.330;-1.180;2023-03-23T13:09:14;9.03;;;2.10;;
14326;SDS011;7247;53.330;-1.180;2023-03-23T13:11:42;9.50;;;2.70;;
14326;SDS011;7247;53.330;-1.180;2023-03-23T13:14:13;7.00;;;2.13;;
14326;SDS011;7247;53.330;-1.180;2023-03-23T13:16:43;4.40;;;1.87;;
14326;SDS011;7247;53.330;-1.180;2023-03-23T13:19:17;6.83;;;2.00;;
14326;SDS011;7247;53.330;-1.180;2023-03-23T13:21:46;6.07;;;2.20;;
14326;SDS011;7247;53.330;-1.180;2023-03-23T13:24:15;6.80;;;1.97;;
14326;SDS011;7247;53.330;-1.180;2023-03-23T13:26:43;6.53;;;2.30;;
14326;SDS011;7247;53.330;-1.180;2023-03-23T13:29:13;4.13;;;1.83;;
14326;SDS011;7247;53.330;-1.180;2023-03-23T13:31:40;9.37;;;2.40;;
14326;SDS011;7247;53.330;-1.180;2023-03-23T13:34:12;9.80;;;2.83;;
14326;SDS011;7247;53.330;-1.180;2023-03-23T13:36:42;8.27;;;2.53;;
14326;SDS011;7247;53.330;-1.180;2023-03-23T13:39:17;6.77;;;2.40;;
14326;SDS011;7247;53.330;-1.180;2023-03-23T13:41:47;7.07;;;2.60;;
14326;SDS011;7247;53.330;-1.180;2023-03-23T13:44:15;6.67;;;2.23;;
14326;SDS011;7247;53.330;-1.180;2023-03-23T13:46:53;7.93;;;2.47;;
14326;SDS011;7247;53.330;-1.180;2023-03-23T13:49:21;8.40;;;2.73;;
14326;SDS011;7247;53.330;-1.180;2023-03-23T13:51:59;7.73;;;2.33;;
14326;SDS011;7247;53.330;-1.180;2023-03-23T13:54:29;7.03;;;2.73;;
14326;SDS011;7247;53.330;-1.180;2023-03-23T13:56:57;9.33;;;2.50;;
14326;SDS011;7247;53.330;-1.180;2023-03-23T13:59:34;6.60;;;2.40;;
14326;SDS011;7247;53.330;-1.180;2023-03-23T14:04:47;8.37;;;2.30;;
14326;SDS011;7247;53.330;-1.180;2023-03-23T14:07:15;7.30;;;2.30;;
14326;SDS011;7247;53.330;-1.180;2023-03-23T14:09:44;8.07;;;2.53;;
14326;SDS011;7247;53.330;-1.180;2023-03-23T14:12:14;6.80;;;2.40;;
14326;SDS011;7247;53.330;-1.180;2023-03-23T14:14:41;8.77;;;2.57;;
14326;SDS011;7247;53.330;-1.180;2023-03-23T14:17:11;9.10;;;2.97;;
14326;SDS011;7247;53.330;-1.180;2023-03-23T14:19:38;9.03;;;2.60;;
14326;SDS011;7247;53.330;-1.180;2023-03-23T14:22:16;7.97;;;2.60;;
14326;SDS011;7247;53.330;-1.180;2023-03-23T14:24:42;13.00;;;3.20;;
14326;SDS011;7247;53.330;-1.180;2023-03-23T14:27:09;9.13;;;2.73;;
14326;SDS011;7247;53.330;-1.180;2023-03-23T14:29:36;8.00;;;2.60;;
14326;SDS011;7247;53.330;-1.180;2023-03-23T14:32:02;7.90;;;2.33;;
14326;SDS011;7247;53.330;-1.180;2023-03-23T14:34:31;10.00;;;2.83;;
14326;SDS011;7247;53.330;-1.180;2023-03-23T14:36:58;9.00;;;2.80;;
14326;SDS011;7247;53.330;-1.180;2023-03-23T14:39:26;10.30;;;3.00;;
14326;SDS011;7247;53.330;-1.180;2023-03-23T14:41:54;7.23;;;2.37;;
14326;SDS011;7247;53.330;-1.180;2023-03-23T14:44:22;8.70;;;2.90;;
14326;SDS011;7247;53.330;-1.180;2023-03-23T14:46:49;12.77;;;3.17;;
14326;SDS011;7247;53.330;-1.180;2023-03-23T14:49:16;9.83;;;2.97;;
14326;SDS011;7247;53.330;-1.180;2023-03-23T14:51:46;12.10;;;2.83;;
14326;SDS011;7247;53.330;-1.180;2023-03-23T14:54:13;9.87;;;3.07;;
14326;SDS011;7247;53.330;-1.180;2023-03-23T14:56:41;11.10;;;2.83;;
14326;SDS011;7247;53.330;-1.180;2023-03-23T14:59:09;7.87;;;2.50;;
14326;SDS011;7247;53.330;-1.180;2023-03-23T15:01:37;12.47;;;2.50;;